KYIP/YIP METAR and TAF weather

Enter ICAO airport designator
Station Type Date Time Source
KYIP METAR 2022/11/26 08:53 UTC NOAA

KYIP 260853Z AUTO 10SM CLR M01/M02 A3011 RMK AO2 SLP201 T10061022 58004


Station Type Date Time Source
KYIP Decoded METAR 2022/11/26 08:53 UTC NOAA

WILLOW RUN AIRPORT, MI, United States (KYIP) 42-14N 083-32W 215M
Nov 26, 2022 - 03:53 AM EST / 2022.11.26 0853 UTC
Visibility: 10 mile(s):0
Sky conditions: clear
Temperature: 30.9 F (-0.6 C)
Dew Point: 28.0 F (-2.2 C)
Relative Humidity: 88%
Pressure (altimeter): 30.11 in. Hg (1019 hPa)
Pressure tendency: 0.01 inches (0.4 hPa) lower than three hours ago
ob: KYIP 260853Z AUTO 10SM CLR M01/M02 A3011 RMK AO2 SLP201 T10061022 58004
cycle: 9

Station Type Date Time Source
KYIP TAF 2022/11/26 06:22 UTC NOAA

TAF KYIP 260520Z 2606/2706 26007KT P6SM SKC
FM261400 25013G20KT P6SM FEW250
FM262200 22009KT P6SM SCT250
FM270200 22007KT P6SM BKN250

Example: see airport list